sensor_id;sensor_type;location;lat;lon;timestamp;pressure;altitude;pressure_sealevel;temperature;humidity
70982;BME280;58640;51.320;9.456;2023-06-26T00:02:09;99263.50;;;20.57;85.28
70982;BME280;58640;51.320;9.456;2023-06-26T00:04:34;99266.97;;;20.53;84.67
70982;BME280;58640;51.320;9.456;2023-06-26T00:07:01;99263.41;;;20.52;86.16
70982;BME280;58640;51.320;9.456;2023-06-26T00:09:26;99259.50;;;20.48;85.36
70982;BME280;58640;51.320;9.456;2023-06-26T00:11:51;99259.50;;;20.48;86.19
70982;BME280;58640;51.320;9.456;2023-06-26T00:14:17;99256.78;;;20.48;86.53
70982;BME280;58640;51.320;9.456;2023-06-26T00:16:46;99253.69;;;20.45;85.99
70982;BME280;58640;51.320;9.456;2023-06-26T00:19:12;99248.72;;;20.42;85.79
70982;BME280;58640;51.320;9.456;2023-06-26T00:21:37;99249.31;;;20.44;86.46
70982;BME280;58640;51.320;9.456;2023-06-26T00:24:02;99245.63;;;20.38;86.44
70982;BME280;58640;51.320;9.456;2023-06-26T00:26:28;99245.03;;;20.36;87.41
70982;BME280;58640;51.320;9.456;2023-06-26T00:28:53;99245.28;;;20.34;86.79
70982;BME280;58640;51.320;9.456;2023-06-26T00:31:18;99247.47;;;20.33;87.82
70982;BME280;58640;51.320;9.456;2023-06-26T00:33:44;99248.16;;;20.28;87.65
70982;BME280;58640;51.320;9.456;2023-06-26T00:36:09;99250.31;;;20.26;87.96
70982;BME280;58640;51.320;9.456;2023-06-26T00:38:35;99240.94;;;20.22;87.07
70982;BME280;58640;51.320;9.456;2023-06-26T00:41:00;99247.72;;;20.19;88.09
70982;BME280;58640;51.320;9.456;2023-06-26T00:43:26;99240.72;;;20.12;88.04
70982;BME280;58640;51.320;9.456;2023-06-26T00:45:51;99243.59;;;20.05;88.59
70982;BME280;58640;51.320;9.456;2023-06-26T00:48:17;99236.44;;;20.04;87.20
70982;BME280;58640;51.320;9.456;2023-06-26T00:50:42;99237.19;;;20.00;89.64
70982;BME280;58640;51.320;9.456;2023-06-26T00:53:09;99236.25;;;19.94;89.15
70982;BME280;58640;51.320;9.456;2023-06-26T00:55:35;99235.91;;;19.91;89.61
70982;BME280;58640;51.320;9.456;2023-06-26T00:58:00;99237.91;;;19.95;88.49
70982;BME280;58640;51.320;9.456;2023-06-26T01:00:26;99230.88;;;19.99;87.72
70982;BME280;58640;51.320;9.456;2023-06-26T01:02:51;99240.88;;;19.94;88.73
70982;BME280;58640;51.320;9.456;2023-06-26T01:05:17;99238.75;;;19.84;88.88
70982;BME280;58640;51.320;9.456;2023-06-26T01:07:48;99234.97;;;19.74;88.74
70982;BME280;58640;51.320;9.456;2023-06-26T01:10:14;99230.59;;;19.73;89.10
70982;BME280;58640;51.320;9.456;2023-06-26T01:12:40;99231.06;;;19.70;90.07
70982;BME280;58640;51.320;9.456;2023-06-26T01:15:06;99241.38;;;19.68;90.14
70982;BME280;58640;51.320;9.456;2023-06-26T01:17:31;99234.75;;;19.64;90.92
70982;BME280;58640;51.320;9.456;2023-06-26T01:19:59;99232.50;;;19.61;90.77
70982;BME280;58640;51.320;9.456;2023-06-26T01:25:15;99226.94;;;19.56;91.68
70982;BME280;58640;51.320;9.456;2023-06-26T01:27:48;99225.16;;;19.50;92.65
70982;BME280;58640;51.320;9.456;2023-06-26T01:30:16;99220.50;;;19.50;92.83
70982;BME280;58640;51.320;9.456;2023-06-26T01:32:42;99222.88;;;19.47;92.84
70982;BME280;58640;51.320;9.456;2023-06-26T01:35:09;99218.75;;;19.44;92.59
70982;BME280;58640;51.320;9.456;2023-06-26T01:37:35;99217.66;;;19.45;93.32
70982;BME280;58640;51.320;9.456;2023-06-26T01:40:00;99217.34;;;19.42;93.06
70982;BME280;58640;51.320;9.456;2023-06-26T01:42:25;99216.13;;;19.38;94.30
70982;BME280;58640;51.320;9.456;2023-06-26T01:44:52;99209.28;;;19.35;94.31
70982;BME280;58640;51.320;9.456;2023-06-26T01:47:22;99211.41;;;19.33;94.26
70982;BME280;58640;51.320;9.456;2023-06-26T01:50:06;99200.50;;;19.33;94.95
70982;BME280;58640;51.320;9.456;2023-06-26T01:52:41;99202.13;;;19.34;93.24
70982;BME280;58640;51.320;9.456;2023-06-26T01:55:17;99201.56;;;19.32;93.35
70982;BME280;58640;51.320;9.456;2023-06-26T01:57:45;99189.56;;;19.33;92.37
70982;BME280;58640;51.320;9.456;2023-06-26T02:00:14;99197.53;;;19.35;92.57
70982;BME280;58640;51.320;9.456;2023-06-26T02:02:42;99194.78;;;19.35;92.69
70982;BME280;58640;51.320;9.456;2023-06-26T02:05:07;99195.03;;;19.33;93.11
70982;BME280;58640;51.320;9.456;2023-06-26T02:07:33;99196.69;;;19.34;94.18
70982;BME280;58640;51.320;9.456;2023-06-26T02:09:58;99200.50;;;19.33;93.11
70982;BME280;58640;51.320;9.456;2023-06-26T02:12:23;99198.59;;;19.34;93.56
70982;BME280;58640;51.320;9.456;2023-06-26T02:14:49;99196.91;;;19.33;93.65
70982;BME280;58640;51.320;9.456;2023-06-26T02:17:15;99190.88;;;19.31;93.95
70982;BME280;58640;51.320;9.456;2023-06-26T02:19:40;99187.94;;;19.32;93.27
70982;BME280;58640;51.320;9.456;2023-06-26T02:22:15;99179.94;;;19.31;93.38
70982;BME280;58640;51.320;9.456;2023-06-26T02:24:41;99180.19;;;19.29;93.96
70982;BME280;58640;51.320;9.456;2023-06-26T02:27:08;99183.53;;;19.31;93.86
70982;BME280;58640;51.320;9.456;2023-06-26T02:29:33;99185.53;;;19.24;94.05
70982;BME280;58640;51.320;9.456;2023-06-26T02:31:58;99184.09;;;19.22;95.37
70982;BME280;58640;51.320;9.456;2023-06-26T02:34:24;99177.09;;;19.14;94.94
70982;BME280;58640;51.320;9.456;2023-06-26T02:36:49;99180.06;;;19.13;95.01
70982;BME280;58640;51.320;9.456;2023-06-26T02:39:14;99181.94;;;19.12;92.65
70982;BME280;58640;51.320;9.456;2023-06-26T02:41:40;99179.94;;;19.08;92.63
70982;BME280;58640;51.320;9.456;2023-06-26T02:44:05;99172.84;;;19.07;92.48
70982;BME280;58640;51.320;9.456;2023-06-26T02:46:32;99174.50;;;19.08;91.78
70982;BME280;58640;51.320;9.456;2023-06-26T02:48:57;99174.50;;;19.08;91.02
70982;BME280;58640;51.320;9.456;2023-06-26T02:51:22;99179.09;;;18.95;91.61
70982;BME280;58640;51.320;9.456;2023-06-26T02:53:48;99170.81;;;18.90;92.39
70982;BME280;58640;51.320;9.456;2023-06-26T02:56:13;99172.31;;;18.86;92.29
70982;BME280;58640;51.320;9.456;2023-06-26T02:58:38;99167.31;;;18.72;93.02
70982;BME280;58640;51.320;9.456;2023-06-26T03:01:04;99167.81;;;18.69;92.42
70982;BME280;58640;51.320;9.456;2023-06-26T03:03:29;99166.63;;;18.65;93.23
70982;BME280;58640;51.320;9.456;2023-06-26T03:05:54;99165.19;;;18.62;93.66
70982;BME280;58640;51.320;9.456;2023-06-26T03:08:20;99165.78;;;18.64;94.11
70982;BME280;58640;51.320;9.456;2023-06-26T03:10:45;99169.91;;;18.55;93.42
70982;BME280;58640;51.320;9.456;2023-06-26T03:13:11;99161.88;;;18.60;92.77
70982;BME280;58640;51.320;9.456;2023-06-26T03:15:36;99160.44;;;18.58;93.17
70982;BME280;58640;51.320;9.456;2023-06-26T03:18:01;99162.31;;;18.57;93.28
70982;BME280;58640;51.320;9.456;2023-06-26T03:20:27;99157.56;;;18.53;94.22
70982;BME280;58640;51.320;9.456;2023-06-26T03:22:52;99159.50;;;18.52;94.33
70982;BME280;58640;51.320;9.456;2023-06-26T03:25:18;99157.81;;;18.51;93.81
70982;BME280;58640;51.320;9.456;2023-06-26T03:27:44;99163.72;;;18.48;94.29
70982;BME280;58640;51.320;9.456;2023-06-26T03:30:10;99154.47;;;18.49;95.07
70982;BME280;58640;51.320;9.456;2023-06-26T03:32:36;99155.09;;;18.51;94.89
70982;BME280;58640;51.320;9.456;2023-06-26T03:35:01;99163.63;;;18.55;94.26
70982;BME280;58640;51.320;9.456;2023-06-26T03:37:28;99161.50;;;18.57;93.72
70982;BME280;58640;51.320;9.456;2023-06-26T03:39:54;99154.38;;;18.56;94.61
70982;BME280;58640;51.320;9.456;2023-06-26T03:42:19;99155.09;;;18.51;95.01
70982;BME280;58640;51.320;9.456;2023-06-26T03:44:44;99159.50;;;18.52;94.90
70982;BME280;58640;51.320;9.456;2023-06-26T03:47:10;99149.03;;;18.49;95.03
70982;BME280;58640;51.320;9.456;2023-06-26T03:49:35;99152.59;;;18.50;94.40
70982;BME280;58640;51.320;9.456;2023-06-26T03:52:00;99146.44;;;18.54;94.58
70982;BME280;58640;51.320;9.456;2023-06-26T03:54:26;99153.34;;;18.57;95.44
70982;BME280;58640;51.320;9.456;2023-06-26T03:56:51;99145.97;;;18.57;94.83
70982;BME280;58640;51.320;9.456;2023-06-26T03:59:17;99148.03;;;18.62;93.65
70982;BME280;58640;51.320;9.456;2023-06-26T04:01:42;99150.59;;;18.68;93.39
70982;BME280;58640;51.320;9.456;2023-06-26T04:04:07;99149.31;;;18.59;92.13
70982;BME280;58640;51.320;9.456;2023-06-26T04:06:33;99149.44;;;18.64;92.05
70982;BME280;58640;51.320;9.456;2023-06-26T04:08:58;99148.25;;;18.60;92.41
70982;BME280;58640;51.320;9.456;2023-06-26T04:11:24;99141.25;;;18.64;93.89
70982;BME280;58640;51.320;9.456;2023-06-26T04:13:50;99144.13;;;18.69;91.91
70982;BME280;58640;51.320;9.456;2023-06-26T04:16:15;99152.41;;;18.74;92.32
70982;BME280;58640;51.320;9.456;2023-06-26T04:18:44;99152.78;;;18.78;91.69
70982;BME280;58640;51.320;9.456;2023-06-26T04:21:11;99155.72;;;18.76;91.58
70982;BME280;58640;51.320;9.456;2023-06-26T04:23:37;99161.41;;;18.75;92.31
70982;BME280;58640;51.320;9.456;2023-06-26T04:26:04;99156.31;;;18.78;91.67
70982;BME280;58640;51.320;9.456;2023-06-26T04:28:33;99157.53;;;18.82;91.69
70982;BME280;58640;51.320;9.456;2023-06-26T04:30:59;99162.63;;;18.90;91.10
70982;BME280;58640;51.320;9.456;2023-06-26T04:33:25;99148.75;;;18.92;90.46
70982;BME280;58640;51.320;9.456;2023-06-26T04:35:51;99156.47;;;18.95;89.60
70982;BME280;58640;51.320;9.456;2023-06-26T04:38:17;99150.31;;;19.00;89.84
70982;BME280;58640;51.320;9.456;2023-06-26T04:40:43;99153.38;;;19.03;88.22
70982;BME280;58640;51.320;9.456;2023-06-26T04:43:09;99152.78;;;19.01;88.57
70982;BME280;58640;51.320;9.456;2023-06-26T04:45:34;99144.50;;;19.08;88.19
70982;BME280;58640;51.320;9.456;2023-06-26T04:47:59;99148.88;;;19.09;88.99
70982;BME280;58640;51.320;9.456;2023-06-26T04:50:25;99137.03;;;19.15;87.56
70982;BME280;58640;51.320;9.456;2023-06-26T04:52:51;99141.53;;;19.21;87.98
70982;BME280;58640;51.320;9.456;2023-06-26T04:55:16;99144.03;;;19.22;88.62
70982;BME280;58640;51.320;9.456;2023-06-26T04:57:42;99136.44;;;19.36;87.65
70982;BME280;58640;51.320;9.456;2023-06-26T05:00:07;99140.25;;;19.35;87.91
70982;BME280;58640;51.320;9.456;2023-06-26T05:02:36;99144.84;;;19.57;86.74
70982;BME280;58640;51.320;9.456;2023-06-26T05:05:01;99144.09;;;19.73;85.79
70982;BME280;58640;51.320;9.456;2023-06-26T05:07:29;99137.38;;;19.92;85.07
70982;BME280;58640;51.320;9.456;2023-06-26T05:09:55;99131.69;;;20.22;84.15
70982;BME280;58640;51.320;9.456;2023-06-26T05:12:20;99129.84;;;20.39;82.69
70982;BME280;58640;51.320;9.456;2023-06-26T05:14:45;99136.00;;;20.63;81.39
70982;BME280;58640;51.320;9.456;2023-06-26T05:17:13;99133.91;;;20.70;81.11
70982;BME280;58640;51.320;9.456;2023-06-26T05:19:38;99136.84;;;20.96;80.52
70982;BME280;58640;51.320;9.456;2023-06-26T05:22:04;99136.53;;;21.09;77.30
70982;BME280;58640;51.320;9.456;2023-06-26T05:24:37;99131.31;;;21.46;74.91
70982;BME280;58640;51.320;9.456;2023-06-26T05:27:03;99120.13;;;21.91;72.99
70982;BME280;58640;51.320;9.456;2023-06-26T05:29:39;99119.22;;;22.07;69.72
70982;BME280;58640;51.320;9.456;2023-06-26T05:32:26;99116.28;;;22.40;67.38
70982;BME280;58640;51.320;9.456;2023-06-26T05:35:00;99115.91;;;22.58;67.98
70982;BME280;58640;51.320;9.456;2023-06-26T05:37:27;99123.00;;;22.54;67.00
70982;BME280;58640;51.320;9.456;2023-06-26T05:39:56;99123.75;;;22.76;65.94
70982;BME280;58640;51.320;9.456;2023-06-26T05:42:43;99124.47;;;23.35;64.49
70982;BME280;58640;51.320;9.456;2023-06-26T05:45:09;99125.28;;;23.30;63.36
70982;BME280;58640;51.320;9.456;2023-06-26T05:47:46;99113.84;;;23.48;63.51
70982;BME280;58640;51.320;9.456;2023-06-26T05:50:21;99118.03;;;23.19;64.34
70982;BME280;58640;51.320;9.456;2023-06-26T05:52:47;99130.16;;;23.23;66.05
70982;BME280;58640;51.320;9.456;2023-06-26T05:55:13;99108.09;;;23.08;64.15
70982;BME280;58640;51.320;9.456;2023-06-26T05:57:40;99112.69;;;23.02;65.00
70982;BME280;58640;51.320;9.456;2023-06-26T06:00:08;99119.63;;;23.10;64.63
70982;BME280;58640;51.320;9.456;2023-06-26T06:02:36;99111.75;;;23.24;64.22
70982;BME280;58640;51.320;9.456;2023-06-26T06:05:02;99113.84;;;23.48;62.85
70982;BME280;58640;51.320;9.456;2023-06-26T06:07:27;99108.44;;;23.68;63.56
70982;BME280;58640;51.320;9.456;2023-06-26T06:09:53;99109.00;;;23.65;62.22
70982;BME280;58640;51.320;9.456;2023-06-26T06:12:18;99105.34;;;24.01;61.02
70982;BME280;58640;51.320;9.456;2023-06-26T06:14:43;99104.34;;;23.66;60.77
70982;BME280;58640;51.320;9.456;2023-06-26T06:17:09;99100.31;;;23.93;62.33
70982;BME280;58640;51.320;9.456;2023-06-26T06:19:34;99094.94;;;24.23;61.44
70982;BME280;58640;51.320;9.456;2023-06-26T06:21:59;99104.00;;;24.19;61.20
70982;BME280;58640;51.320;9.456;2023-06-26T06:24:25;99093.03;;;24.39;59.82
70982;BME280;58640;51.320;9.456;2023-06-26T06:26:50;99096.31;;;24.51;59.89
70982;BME280;58640;51.320;9.456;2023-06-26T06:29:16;99100.75;;;24.97;58.98
70982;BME280;58640;51.320;9.456;2023-06-26T06:31:43;99097.72;;;24.59;56.74
70982;BME280;58640;51.320;9.456;2023-06-26T06:34:09;99098.78;;;24.27;59.41
70982;BME280;58640;51.320;9.456;2023-06-26T06:36:34;99101.84;;;24.56;58.52
70982;BME280;58640;51.320;9.456;2023-06-26T06:39:07;99099.91;;;25.07;57.25
70982;BME280;58640;51.320;9.456;2023-06-26T06:41:35;99090.22;;;25.49;55.73
70982;BME280;58640;51.320;9.456;2023-06-26T06:44:03;99092.84;;;25.84;55.55
70982;BME280;58640;51.320;9.456;2023-06-26T06:46:28;99081.38;;;26.21;54.00
70982;BME280;58640;51.320;9.456;2023-06-26T06:48:53;99091.53;;;26.69;53.34
70982;BME280;58640;51.320;9.456;2023-06-26T06:51:22;99088.97;;;27.06;50.78
70982;BME280;58640;51.320;9.456;2023-06-26T06:54:01;99090.00;;;26.87;53.06
70982;BME280;58640;51.320;9.456;2023-06-26T06:56:29;99100.41;;;27.23;51.70
70982;BME280;58640;51.320;9.456;2023-06-26T06:58:57;99078.56;;;26.98;54.11
70982;BME280;58640;51.320;9.456;2023-06-26T07:01:25;99079.59;;;27.07;51.27
70982;BME280;58640;51.320;9.456;2023-06-26T07:03:50;99091.53;;;27.32;50.17
70982;BME280;58640;51.320;9.456;2023-06-26T07:06:37;99088.22;;;27.53;48.86
70982;BME280;58640;51.320;9.456;2023-06-26T07:09:22;99085.38;;;27.82;48.96
70982;BME280;58640;51.320;9.456;2023-06-26T07:12:17;99104.84;;;28.19;48.64
70982;BME280;58640;51.320;9.456;2023-06-26T07:14:48;99088.69;;;28.44;47.45
70982;BME280;58640;51.320;9.456;2023-06-26T07:17:24;99086.00;;;28.77;44.53
70982;BME280;58640;51.320;9.456;2023-06-26T07:19:49;99075.53;;;28.36;45.63
70982;BME280;58640;51.320;9.456;2023-06-26T07:22:20;99081.75;;;28.66;46.13
70982;BME280;58640;51.320;9.456;2023-06-26T07:24:55;99089.00;;;29.26;46.46
70982;BME280;58640;51.320;9.456;2023-06-26T07:27:23;99087.66;;;29.23;43.06
70982;BME280;58640;51.320;9.456;2023-06-26T07:29:53;99088.81;;;29.49;42.67
70982;BME280;58640;51.320;9.456;2023-06-26T07:32:21;99077.34;;;29.83;41.50
70982;BME280;58640;51.320;9.456;2023-06-26T07:34:49;99090.78;;;30.30;41.16
70982;BME280;58640;51.320;9.456;2023-06-26T07:37:14;99084.75;;;30.01;41.21
70982;BME280;58640;51.320;9.456;2023-06-26T07:39:42;99085.69;;;29.69;43.34
70982;BME280;58640;51.320;9.456;2023-06-26T07:42:08;99088.09;;;29.30;44.55
70982;BME280;58640;51.320;9.456;2023-06-26T07:44:33;99083.84;;;29.78;43.40
70982;BME280;58640;51.320;9.456;2023-06-26T07:46:59;99080.03;;;29.74;44.02
70982;BME280;58640;51.320;9.456;2023-06-26T07:49:27;99081.25;;;29.95;42.82
70982;BME280;58640;51.320;9.456;2023-06-26T07:51:52;99072.72;;;29.51;42.94
70982;BME280;58640;51.320;9.456;2023-06-26T07:54:25;99082.38;;;29.81;43.44
70982;BME280;58640;51.320;9.456;2023-06-26T07:57:03;99078.53;;;30.18;43.29
70982;BME280;58640;51.320;9.456;2023-06-26T07:59:30;99080.25;;;29.64;43.64
70982;BME280;58640;51.320;9.456;2023-06-26T08:01:56;99086.38;;;29.34;45.63
70982;BME280;58640;51.320;9.456;2023-06-26T08:04:26;99082.25;;;29.32;43.65
70982;BME280;58640;51.320;9.456;2023-06-26T08:06:53;99088.81;;;29.49;45.18
70982;BME280;58640;51.320;9.456;2023-06-26T08:09:21;99085.06;;;29.72;43.27
70982;BME280;58640;51.320;9.456;2023-06-26T08:11:46;99089.38;;;29.65;42.29
70982;BME280;58640;51.320;9.456;2023-06-26T08:14:12;99094.06;;;30.05;43.27
70982;BME280;58640;51.320;9.456;2023-06-26T08:16:42;99086.44;;;30.24;43.96
70982;BME280;58640;51.320;9.456;2023-06-26T08:19:08;99088.56;;;29.91;43.22
70982;BME280;58640;51.320;9.456;2023-06-26T08:21:34;99089.16;;;29.75;44.86
70982;BME280;58640;51.320;9.456;2023-06-26T08:23:59;99084.81;;;29.42;44.45
70982;BME280;58640;51.320;9.456;2023-06-26T08:26:25;99073.00;;;29.63;45.09
70982;BME280;58640;51.320;9.456;2023-06-26T08:28:59;99072.31;;;29.58;44.24
70982;BME280;58640;51.320;9.456;2023-06-26T08:31:24;99071.00;;;29.69;44.34
70982;BME280;58640;51.320;9.456;2023-06-26T08:33:50;99080.34;;;29.86;46.17
70982;BME280;58640;51.320;9.456;2023-06-26T08:36:17;99076.84;;;29.94;44.40
70982;BME280;58640;51.320;9.456;2023-06-26T08:38:43;99076.53;;;30.45;43.76
70982;BME280;58640;51.320;9.456;2023-06-26T08:41:08;99066.44;;;30.49;43.75
70982;BME280;58640;51.320;9.456;2023-06-26T08:43:35;99060.19;;;30.44;45.30
70982;BME280;58640;51.320;9.456;2023-06-26T08:46:03;99068.50;;;30.44;43.95
70982;BME280;58640;51.320;9.456;2023-06-26T08:48:32;99070.78;;;30.64;45.11
70982;BME280;58640;51.320;9.456;2023-06-26T08:51:09;99070.94;;;30.59;43.29
70982;BME280;58640;51.320;9.456;2023-06-26T08:53:44;99068.84;;;30.64;44.44
70982;BME280;58640;51.320;9.456;2023-06-26T08:56:16;99069.47;;;30.61;45.00
70982;BME280;58640;51.320;9.456;2023-06-26T08:58:43;99076.19;;;30.82;41.86
70982;BME280;58640;51.320;9.456;2023-06-26T09:01:11;99073.28;;;30.65;43.08
70982;BME280;58640;51.320;9.456;2023-06-26T09:03:38;99057.22;;;30.62;45.13
70982;BME280;58640;51.320;9.456;2023-06-26T09:06:03;99059.34;;;30.79;45.46
70982;BME280;58640;51.320;9.456;2023-06-26T09:08:29;99062.97;;;30.44;43.77
70982;BME280;58640;51.320;9.456;2023-06-26T09:10:54;99067.38;;;30.45;43.15
70982;BME280;58640;51.320;9.456;2023-06-26T09:13:20;99071.66;;;30.15;44.51
70982;BME280;58640;51.320;9.456;2023-06-26T09:15:46;99066.09;;;29.66;45.10
70982;BME280;58640;51.320;9.456;2023-06-26T09:18:12;99075.50;;;29.51;45.33
70982;BME280;58640;51.320;9.456;2023-06-26T09:20:38;99076.19;;;29.30;46.06
70982;BME280;58640;51.320;9.456;2023-06-26T09:23:04;99080.78;;;29.07;46.50
70982;BME280;58640;51.320;9.456;2023-06-26T09:25:30;99077.47;;;28.73;47.08
70982;BME280;58640;51.320;9.456;2023-06-26T09:27:58;99077.50;;;28.54;48.92
70982;BME280;58640;51.320;9.456;2023-06-26T09:30:26;99078.56;;;28.16;49.94
70982;BME280;58640;51.320;9.456;2023-06-26T09:32:51;99082.47;;;28.15;51.38
70982;BME280;58640;51.320;9.456;2023-06-26T09:35:19;99074.31;;;28.05;52.08
70982;BME280;58640;51.320;9.456;2023-06-26T09:37:45;99077.09;;;28.24;49.18
70982;BME280;58640;51.320;9.456;2023-06-26T09:40:10;99079.75;;;28.52;48.19
70982;BME280;58640;51.320;9.456;2023-06-26T09:42:36;99074.25;;;28.98;50.00
70982;BME280;58640;51.320;9.456;2023-06-26T09:45:02;99082.31;;;29.13;47.78
70982;BME280;58640;51.320;9.456;2023-06-26T09:47:30;99073.75;;;29.42;44.76
70982;BME280;58640;51.320;9.456;2023-06-26T09:49:56;99077.25;;;29.61;43.99
70982;BME280;58640;51.320;9.456;2023-06-26T09:52:26;99090.41;;;29.69;42.23
70982;BME280;58640;51.320;9.456;2023-06-26T09:55:07;99095.06;;;29.28;44.12
70982;BME280;58640;51.320;9.456;2023-06-26T09:57:34;99083.59;;;28.70;44.75
70982;BME280;58640;51.320;9.456;2023-06-26T10:00:00;99090.94;;;28.24;47.17
70982;BME280;58640;51.320;9.456;2023-06-26T10:02:26;99098.28;;;27.91;48.55
70982;BME280;58640;51.320;9.456;2023-06-26T10:04:51;99091.28;;;27.75;49.34
70982;BME280;58640;51.320;9.456;2023-06-26T10:07:17;99103.44;;;27.27;50.70
70982;BME280;58640;51.320;9.456;2023-06-26T10:09:45;99102.63;;;27.21;51.66
70982;BME280;58640;51.320;9.456;2023-06-26T10:12:18;99102.78;;;27.06;52.36
70982;BME280;58640;51.320;9.456;2023-06-26T10:14:45;99094.63;;;26.96;52.99
70982;BME280;58640;51.320;9.456;2023-06-26T10:17:15;99096.41;;;27.11;51.66
70982;BME280;58640;51.320;9.456;2023-06-26T10:19:44;99101.81;;;26.92;51.60
70982;BME280;58640;51.320;9.456;2023-06-26T10:22:11;99098.38;;;26.77;51.92
70982;BME280;58640;51.320;9.456;2023-06-26T10:24:40;99104.28;;;26.55;52.89
70982;BME280;58640;51.320;9.456;2023-06-26T10:27:19;99108.22;;;26.44;52.99
70982;BME280;58640;51.320;9.456;2023-06-26T10:29:47;99118.97;;;25.97;53.78
70982;BME280;58640;51.320;9.456;2023-06-26T10:32:14;99127.31;;;25.77;53.97
70982;BME280;58640;51.320;9.456;2023-06-26T10:34:41;99144.19;;;25.55;55.03
70982;BME280;58640;51.320;9.456;2023-06-26T10:37:06;99173.41;;;25.41;55.02
70982;BME280;58640;51.320;9.456;2023-06-26T10:39:48;99203.13;;;25.24;57.96
70982;BME280;58640;51.320;9.456;2023-06-26T10:42:18;99215.25;;;25.03;62.70
70982;BME280;58640;51.320;9.456;2023-06-26T10:44:46;99201.63;;;24.31;69.64
70982;BME280;58640;51.320;9.456;2023-06-26T10:47:32;99182.28;;;23.60;75.13
70982;BME280;58640;51.320;9.456;2023-06-26T10:52:41;99161.50;;;22.16;87.65
70982;BME280;58640;51.320;9.456;2023-06-26T10:55:08;99164.56;;;21.98;88.43
70982;BME280;58640;51.320;9.456;2023-06-26T10:57:35;99168.72;;;21.79;88.72
70982;BME280;58640;51.320;9.456;2023-06-26T11:00:11;99187.94;;;21.84;89.65
70982;BME280;58640;51.320;9.456;2023-06-26T11:02:51;99203.75;;;21.98;93.11
70982;BME280;58640;51.320;9.456;2023-06-26T11:05:32;99201.75;;;22.15;93.79
70982;BME280;58640;51.320;9.456;2023-06-26T11:08:08;99198.50;;;22.40;94.88
70982;BME280;58640;51.320;9.456;2023-06-26T11:10:52;99202.88;;;22.62;94.42
70982;BME280;58640;51.320;9.456;2023-06-26T11:13:19;99205.50;;;22.79;95.55
70982;BME280;58640;51.320;9.456;2023-06-26T11:15:45;99200.75;;;23.01;95.46
70982;BME280;58640;51.320;9.456;2023-06-26T11:18:10;99210.88;;;23.27;100.00
70982;BME280;58640;51.320;9.456;2023-06-26T11:20:37;99207.56;;;23.62;90.81
70982;BME280;58640;51.320;9.456;2023-06-26T11:23:04;99208.19;;;23.74;85.03
70982;BME280;58640;51.320;9.456;2023-06-26T11:25:37;99208.00;;;23.95;81.46
70982;BME280;58640;51.320;9.456;2023-06-26T11:28:03;99218.00;;;24.11;82.01
70982;BME280;58640;51.320;9.456;2023-06-26T11:30:29;99210.38;;;24.23;78.22
70982;BME280;58640;51.320;9.456;2023-06-26T11:33:05;99213.09;;;24.13;78.56
70982;BME280;58640;51.320;9.456;2023-06-26T11:35:31;99217.72;;;24.08;78.12
70982;BME280;58640;51.320;9.456;2023-06-26T11:37:58;99221.06;;;24.15;76.60
70982;BME280;58640;51.320;9.456;2023-06-26T11:40:32;99222.50;;;24.32;77.88
70982;BME280;58640;51.320;9.456;2023-06-26T11:42:58;99215.66;;;24.45;77.81
70982;BME280;58640;51.320;9.456;2023-06-26T11:45:25;99223.63;;;24.41;81.41
70982;BME280;58640;51.320;9.456;2023-06-26T11:47:51;99224.78;;;24.50;82.84
70982;BME280;58640;51.320;9.456;2023-06-26T11:50:16;99215.50;;;24.67;76.15
70982;BME280;58640;51.320;9.456;2023-06-26T11:52:45;99216.91;;;24.84;71.84
70982;BME280;58640;51.320;9.456;2023-06-26T11:55:11;99227.38;;;24.92;69.94
70982;BME280;58640;51.320;9.456;2023-06-26T11:57:37;99214.13;;;24.74;69.82
70982;BME280;58640;51.320;9.456;2023-06-26T12:00:15;99218.47;;;24.65;71.92
70982;BME280;58640;51.320;9.456;2023-06-26T12:02:44;99231.88;;;24.46;72.02
70982;BME280;58640;51.320;9.456;2023-06-26T12:05:10;99234.34;;;24.38;68.43
70982;BME280;58640;51.320;9.456;2023-06-26T12:07:36;99235.69;;;24.35;68.56
70982;BME280;58640;51.320;9.456;2023-06-26T12:10:03;99231.31;;;24.34;69.16
70982;BME280;58640;51.320;9.456;2023-06-26T12:12:30;99237.38;;;24.36;67.78
70982;BME280;58640;51.320;9.456;2023-06-26T12:14:57;99230.53;;;24.44;66.44
70982;BME280;58640;51.320;9.456;2023-06-26T12:17:23;99242.38;;;24.54;66.96
70982;BME280;58640;51.320;9.456;2023-06-26T12:19:50;99224.50;;;24.62;69.16
70982;BME280;58640;51.320;9.456;2023-06-26T12:22:17;99232.28;;;24.85;69.38
70982;BME280;58640;51.320;9.456;2023-06-26T12:24:43;99237.00;;;25.00;65.60
70982;BME280;58640;51.320;9.456;2023-06-26T12:27:10;99233.41;;;24.99;62.75
70982;BME280;58640;51.320;9.456;2023-06-26T12:29:36;99227.91;;;24.84;64.05
70982;BME280;58640;51.320;9.456;2023-06-26T12:32:02;99219.91;;;24.88;62.41
70982;BME280;58640;51.320;9.456;2023-06-26T12:34:31;99241.09;;;24.82;61.41
70982;BME280;58640;51.320;9.456;2023-06-26T12:37:02;99229.84;;;24.94;62.40
70982;BME280;58640;51.320;9.456;2023-06-26T12:39:28;99227.63;;;24.96;60.72
70982;BME280;58640;51.320;9.456;2023-06-26T12:41:57;99226.53;;;24.97;62.66
70982;BME280;58640;51.320;9.456;2023-06-26T12:44:30;99230.66;;;24.99;60.61
70982;BME280;58640;51.320;9.456;2023-06-26T12:47:01;99229.84;;;25.09;59.02
70982;BME280;58640;51.320;9.456;2023-06-26T12:49:37;99235.88;;;25.01;61.23
70982;BME280;58640;51.320;9.456;2023-06-26T12:52:08;99251.28;;;25.07;60.96
70982;BME280;58640;51.320;9.456;2023-06-26T12:54:38;99252.13;;;25.12;58.95
70982;BME280;58640;51.320;9.456;2023-06-26T12:57:04;99253.47;;;24.90;56.58
70982;BME280;58640;51.320;9.456;2023-06-26T12:59:30;99247.69;;;24.86;56.42
70982;BME280;58640;51.320;9.456;2023-06-26T13:01:56;99240.56;;;24.95;56.55
70982;BME280;58640;51.320;9.456;2023-06-26T13:04:21;99244.16;;;24.91;57.68
70982;BME280;58640;51.320;9.456;2023-06-26T13:06:47;99242.78;;;24.98;57.31
70982;BME280;58640;51.320;9.456;2023-06-26T13:09:12;99244.97;;;25.01;59.97